Time;durP1;ratioP1;P1;durP2;ratioP2;P2;SDS_P1;SDS_P2;PMS_P1;PMS_P2;Temp;Humidity;BMP_temperature;BMP_pressure;BME280_temperature;BME280_humidity;BME280_pressure;Samples;Min_cycle;Max_cycle;Signal;HPM_P1;HPM_P2
2022/10/25 00:03:39;;;;;;;10.02;4.13;;;;;12.40;96405.00;;;;8298873;28;20556;-68
2022/10/25 00:07:42;;;;;;;4.85;2.88;;;;;12.40;96411.00;;;;8298058;28;20232;-68
2022/10/25 00:11:45;;;;;;;9.52;3.50;;;;;12.40;96415.00;;;;8298109;28;20302;-68
2022/10/25 00:16:22;;;;;;;3.13;2.80;;;;;12.30;96406.00;;;;8298057;28;20229;-68
2022/10/25 00:20:26;;;;;;;4.13;2.60;;;;;12.40;96407.00;;;;8330146;28;20567;-68
2022/10/25 00:25:00;;;;;;;4.57;2.60;;;;;12.50;96414.00;;;;8330607;28;20235;-69
2022/10/25 00:29:03;;;;;;;3.95;2.60;;;;;12.50;96420.00;;;;8329853;28;20232;-69
2022/10/25 00:33:40;;;;;;;5.63;2.72;;;;;12.60;96417.00;;;;8330694;28;20708;-69
2022/10/25 00:37:45;;;;;;;4.03;2.17;;;;;12.60;96420.00;;;;8296283;28;20236;-69
2022/10/25 00:42:20;;;;;;;4.00;2.28;;;;;12.60;96425.00;;;;8298234;28;20556;-69
2022/10/25 00:46:26;;;;;;;6.55;2.03;;;;;12.50;96426.00;;;;8297118;28;20221;-70
2022/10/25 00:50:46;;;;;;;6.07;2.45;;;;;12.40;96425.00;;;;8296812;28;20232;-69
2022/10/25 00:55:26;;;;;;;2.33;2.13;;;;;12.30;96432.00;;;;8295892;28;20221;-69
2022/10/25 00:59:32;;;;;;;5.22;2.15;;;;;12.20;96440.00;;;;8329442;28;20233;-69
2022/10/25 01:04:07;;;;;;;5.63;2.08;;;;;12.10;96437.00;;;;8319848;28;20224;-69
2022/10/25 01:08:11;;;;;;;3.00;2.10;;;;;11.90;96441.00;;;;8340184;28;20232;-69
2022/10/25 01:12:45;;;;;;;6.90;2.35;;;;;11.70;96448.00;;;;8329372;28;20229;-69
2022/10/25 01:17:03;;;;;;;2.78;2.20;;;;;11.70;96447.00;;;;8324414;28;20221;-70
2022/10/25 01:21:37;;;;;;;4.55;2.58;;;;;11.50;96431.00;;;;8328806;28;20221;-70
2022/10/25 01:26:08;;;;;;;4.45;2.03;;;;;11.50;96435.00;;;;8328357;28;20228;-69
2022/10/25 01:30:18;;;;;;;4.05;2.15;;;;;11.40;96445.00;;;;8328752;28;20562;-69
2022/10/25 01:34:50;;;;;;;5.22;2.38;;;;;11.50;96444.00;;;;8325118;28;20229;-70
2022/10/25 01:39:03;;;;;;;4.88;2.35;;;;;11.40;96446.00;;;;8327872;28;20644;-70
2022/10/25 01:43:12;;;;;;;2.90;2.47;;;;;11.30;96444.00;;;;8329329;28;20228;-70
2022/10/25 01:47:44;;;;;;;8.38;2.33;;;;;11.20;96445.00;;;;8328701;28;20225;-70
2022/10/25 01:51:49;;;;;;;4.07;2.17;;;;;11.20;96447.00;;;;8327014;28;20271;-70
2022/10/25 01:56:23;;;;;;;9.02;3.35;;;;;11.10;96442.00;;;;8328429;28;20217;-70
2022/10/25 02:00:26;;;;;;;5.60;2.47;;;;;11.10;96448.00;;;;8326482;28;20571;-70
2022/10/25 02:04:39;;;;;;;4.22;2.40;;;;;11.10;96444.00;;;;8327753;28;20224;-70
2022/10/25 02:08:48;;;;;;;6.63;2.00;;;;;11.00;96449.00;;;;8326406;28;20274;-69
2022/10/25 02:13:22;;;;;;;3.25;2.10;;;;;10.90;96450.00;;;;8333174;28;20229;-69
2022/10/25 02:17:27;;;;;;;3.67;2.40;;;;;10.90;96440.00;;;;8326747;28;20643;-70
2022/10/25 02:21:33;;;;;;;6.53;2.13;;;;;10.80;96438.00;;;;8328150;28;20228;-69
2022/10/25 02:26:09;;;;;;;5.25;2.42;;;;;10.70;96440.00;;;;8327874;28;20682;-70
2022/10/25 02:30:13;;;;;;;4.38;2.58;;;;;10.60;96449.00;;;;8328040;28;20236;-69
2022/10/25 02:34:52;;;;;;;5.45;2.30;;;;;10.50;96449.00;;;;8327397;28;20222;-69
2022/10/25 02:39:00;;;;;;;3.65;2.63;;;;;10.40;96450.00;;;;8320975;28;20232;-69
2022/10/25 02:43:08;;;;;;;7.50;2.60;;;;;10.40;96444.00;;;;8328338;28;20223;-69
2022/10/25 02:47:39;;;;;;;6.50;2.70;;;;;10.30;96437.00;;;;8331954;28;20214;-69
2022/10/25 02:51:42;;;;;;;2.72;2.47;;;;;10.20;96441.00;;;;8333162;28;20658;-69
2022/10/25 02:55:45;;;;;;;4.93;2.70;;;;;10.20;96445.00;;;;8333745;28;20223;-69
2022/10/25 03:00:23;;;;;;;10.55;2.88;;;;;10.10;96450.00;;;;8333258;28;20226;-69
2022/10/25 03:04:27;;;;;;;7.95;3.13;;;;;10.10;96451.00;;;;8328955;28;20232;-70
2022/10/25 03:08:30;;;;;;;189.88;8.88;;;;;10.00;96453.00;;;;8333142;28;20225;-70
2022/10/25 03:13:04;;;;;;;14.38;3.50;;;;;9.90;96457.00;;;;8332316;28;20233;-69
2022/10/25 03:17:09;;;;;;;7.80;2.60;;;;;9.60;96451.00;;;;8300556;28;20218;-69
2022/10/25 03:21:42;;;;;;;11.02;4.20;;;;;9.50;96449.00;;;;8299470;28;20241;-69
2022/10/25 03:25:45;;;;;;;18.42;3.78;;;;;9.40;96445.00;;;;8300068;28;20222;-69
2022/10/25 03:29:53;;;;;;;27.05;4.95;;;;;9.30;96454.00;;;;8297744;28;20275;-69
2022/10/25 03:33:58;;;;;;;7.65;3.72;;;;;9.30;96467.00;;;;8298544;28;20588;-67
2022/10/25 03:38:01;;;;;;;82.80;6.20;;;;;9.30;96472.00;;;;8299210;28;20220;-68
2022/10/25 03:42:04;;;;;;;24.27;3.72;;;;;9.30;96478.00;;;;8298072;28;20545;-67
2022/10/25 03:46:41;;;;;;;23.20;3.80;;;;;9.10;96469.00;;;;8297410;28;20224;-68
2022/10/25 03:50:59;;;;;;;153.32;7.65;;;;;9.10;96477.00;;;;8299040;28;20230;-67
2022/10/25 03:55:33;;;;;;;4.97;3.15;;;;;9.10;96488.00;;;;8297206;28;20214;-67
2022/10/25 03:59:36;;;;;;;5.85;3.17;;;;;9.20;96486.00;;;;8297997;28;20244;-67
2022/10/25 04:04:12;;;;;;;4.95;3.13;;;;;9.30;96487.00;;;;8297686;28;20230;-67
2022/10/25 04:08:54;;;;;;;5.97;2.55;;;;;9.40;96485.00;;;;8297352;28;20649;-67
2022/10/25 04:13:29;;;;;;;6.15;2.47;;;;;9.40;96486.00;;;;8289623;28;20544;-67
2022/10/25 04:18:03;;;;;;;3.17;2.55;;;;;9.50;96493.00;;;;8329875;28;20304;-68
2022/10/25 04:22:39;;;;;;;7.15;2.60;;;;;9.50;96496.00;;;;8296622;28;20332;-67
2022/10/25 04:27:16;;;;;;;5.75;3.13;;;;;9.50;96487.00;;;;8298008;28;20223;-67
2022/10/25 04:31:55;;;;;;;8.68;3.15;;;;;9.50;96490.00;;;;8296534;28;20232;-66
2022/10/25 04:36:29;;;;;;;7.43;3.45;;;;;9.50;96483.00;;;;8292276;28;20231;-67
2022/10/25 04:46:04;;;;;;;16.23;4.63;;;;;9.40;96488.00;;;;8295780;28;20564;-67
2022/10/25 04:50:43;;;;;;;87.90;7.63;;;;;9.40;96490.00;;;;8296879;28;20644;-67
2022/10/25 04:55:16;;;;;;;609.65;24.38;;;;;9.40;96484.00;;;;8297539;28;20237;-66
2022/10/25 04:59:20;;;;;;;23.65;6.47;;;;;9.40;96493.00;;;;8296629;28;20248;-66
2022/10/25 05:03:57;;;;;;;36.15;6.18;;;;;9.40;96502.00;;;;8296543;28;20231;-67
2022/10/25 05:08:33;;;;;;;53.72;7.05;;;;;9.30;96503.00;;;;8295794;28;20221;-66
2022/10/25 05:13:11;;;;;;;59.40;8.10;;;;;9.20;96511.00;;;;8298624;28;20225;-67
2022/10/25 05:17:45;;;;;;;25.98;9.18;;;;;9.20;96518.00;;;;8296612;28;20548;-66
2022/10/25 05:22:21;;;;;;;25.90;9.55;;;;;9.20;96519.00;;;;8296410;28;20252;-66
2022/10/25 05:26:24;;;;;;;37.63;10.68;;;;;9.40;96519.00;;;;8295884;28;20263;-66
2022/10/25 05:31:04;;;;;;;33.15;11.85;;;;;9.50;96530.00;;;;8295437;28;20218;-66
2022/10/25 05:35:38;;;;;;;42.95;11.98;;;;;9.60;96526.00;;;;8296299;28;20219;-67
2022/10/25 05:44:38;;;;;;;49.95;14.70;;;;;10.00;96536.00;;;;8295596;28;20228;-66
2022/10/25 05:49:17;;;;;;;50.75;15.05;;;;;10.10;96534.00;;;;8295485;28;20214;-67
2022/10/25 05:53:50;;;;;;;61.80;13.32;;;;;10.10;96532.00;;;;8295513;28;20222;-68
2022/10/25 05:58:27;;;;;;;144.02;17.80;;;;;10.00;96529.00;;;;8295694;28;20658;-67
2022/10/25 06:02:30;;;;;;;42.17;10.15;;;;;9.80;96536.00;;;;8294917;28;20602;-68
2022/10/25 06:07:08;;;;;;;46.15;11.95;;;;;9.60;96536.00;;;;8295605;28;20210;-69
2022/10/25 06:11:45;;;;;;;57.40;13.27;;;;;9.60;96541.00;;;;8294843;28;20316;-67
2022/10/25 06:16:23;;;;;;;236.27;19.25;;;;;9.50;96560.00;;;;8295168;28;20220;-67
2022/10/25 06:21:03;;;;;;;69.40;12.48;;;;;9.50;96572.00;;;;8296819;28;20222;-67
2022/10/25 06:25:41;;;;;;;42.97;12.73;;;;;9.50;96561.00;;;;8293856;28;20226;-68
2022/10/25 06:30:15;;;;;;;380.48;22.98;;;;;9.50;96568.00;;;;8301204;28;20290;-68
2022/10/25 06:34:52;;;;;;;71.57;12.93;;;;;9.60;96585.00;;;;8301096;28;20239;-68
2022/10/25 06:38:55;;;;;;;499.67;27.58;;;;;9.60;96586.00;;;;8300728;28;20214;-68
2022/10/25 06:43:34;;;;;;;86.00;14.60;;;;;9.70;96588.00;;;;8300586;28;20284;-68
2022/10/25 06:48:07;;;;;;;61.92;17.10;;;;;10.00;96582.00;;;;8300947;28;20214;-68
2022/10/25 06:52:44;;;;;;;52.03;15.80;;;;;10.50;96600.00;;;;8298423;28;20611;-68
2022/10/25 06:57:21;;;;;;;41.85;15.05;;;;;10.90;96600.00;;;;8300657;28;20310;-68
2022/10/25 07:01:59;;;;;;;42.90;14.43;;;;;11.30;96601.00;;;;8300353;28;20708;-69
2022/10/25 07:06:34;;;;;;;42.15;14.50;;;;;11.40;96594.00;;;;8299906;28;20212;-68
2022/10/25 07:11:11;;;;;;;35.20;13.02;;;;;11.50;96602.00;;;;8299153;28;20263;-68
2022/10/25 07:15:48;;;;;;;41.63;13.52;;;;;11.50;96617.00;;;;8300173;28;20226;-68
2022/10/25 07:19:52;;;;;;;37.33;12.68;;;;;11.70;96604.00;;;;8299601;28;20232;-68
2022/10/25 07:24:26;;;;;;;39.85;13.05;;;;;11.80;96618.00;;;;8299780;28;20228;-68
2022/10/25 07:29:03;;;;;;;37.50;13.80;;;;;11.90;96616.00;;;;8299792;28;20600;-68
2022/10/25 07:33:37;;;;;;;35.53;13.27;;;;;12.10;96618.00;;;;8298699;28;20222;-68
2022/10/25 07:38:15;;;;;;;41.58;14.30;;;;;12.20;96620.00;;;;8298778;28;20244;-69
2022/10/25 07:42:48;;;;;;;39.67;13.57;;;;;12.50;96625.00;;;;8299631;28;20220;-68
2022/10/25 07:47:25;;;;;;;37.90;12.30;;;;;12.60;96625.00;;;;8298622;28;20244;-69
2022/10/25 07:52:02;;;;;;;41.95;13.85;;;;;12.70;96634.00;;;;8297260;28;20268;-69
2022/10/25 07:56:40;;;;;;;34.92;12.90;;;;;12.70;96633.00;;;;8299318;28;20217;-69
2022/10/25 08:01:16;;;;;;;34.95;13.30;;;;;12.80;96634.00;;;;8296443;28;20214;-71
2022/10/25 08:05:50;;;;;;;34.88;12.93;;;;;13.00;96635.00;;;;8332052;28;20225;-68
2022/10/25 08:10:28;;;;;;;24.50;11.43;;;;;13.10;96633.00;;;;8297097;28;20234;-69
2022/10/25 08:15:03;;;;;;;24.80;11.60;;;;;13.20;96627.00;;;;8297470;28;20309;-69
2022/10/25 08:19:37;;;;;;;26.75;11.20;;;;;13.40;96638.00;;;;8297527;28;20222;-69
2022/10/25 08:24:14;;;;;;;24.77;10.57;;;;;13.60;96640.00;;;;8298152;28;20229;-70
2022/10/25 08:28:51;;;;;;;23.20;10.85;;;;;13.80;96648.00;;;;8297120;28;20655;-70
2022/10/25 08:33:27;;;;;;;20.73;10.15;;;;;13.90;96647.00;;;;8297154;28;20214;-70
2022/10/25 08:38:05;;;;;;;21.75;9.23;;;;;14.10;96658.00;;;;8297307;28;20625;-70
2022/10/25 08:42:19;;;;;;;17.15;8.68;;;;;14.20;96652.00;;;;8294243;28;20214;-70
2022/10/25 08:46:49;;;;;;;15.05;6.70;;;;;14.40;96645.00;;;;8294604;28;20226;-69
2022/10/25 08:50:54;;;;;;;11.45;6.57;;;;;14.50;96651.00;;;;8295989;28;20583;-71
2022/10/25 08:55:02;;;;;;;11.82;6.30;;;;;14.60;96654.00;;;;8294373;28;20571;-70
2022/10/25 08:59:09;;;;;;;12.40;6.07;;;;;14.80;96653.00;;;;8295433;28;20271;-70
2022/10/25 09:03:46;;;;;;;11.27;5.18;;;;;15.00;96650.00;;;;8294262;28;20245;-71
2022/10/25 09:08:29;;;;;;;8.48;4.18;;;;;15.00;96648.00;;;;8293975;28;20222;-70
2022/10/25 09:13:07;;;;;;;6.07;4.57;;;;;15.10;96663.00;;;;8294295;28;20233;-71
2022/10/25 09:17:41;;;;;;;7.93;5.13;;;;;15.10;96653.00;;;;8294385;28;20237;-71
2022/10/25 09:22:18;;;;;;;6.32;4.80;;;;;15.20;96663.00;;;;8293386;28;20248;-71
2022/10/25 09:26:52;;;;;;;8.10;4.38;;;;;15.40;96658.00;;;;8294737;28;20292;-71
2022/10/25 09:31:32;;;;;;;7.22;4.93;;;;;15.50;96649.00;;;;8294100;28;20228;-71
2022/10/25 09:36:06;;;;;;;9.38;3.95;;;;;15.60;96652.00;;;;8293865;28;20268;-72
2022/10/25 09:40:14;;;;;;;7.63;4.25;;;;;15.60;96662.00;;;;8245853;28;1373181;-70
2022/10/25 09:44:28;;;;;;;4.20;3.50;;;;;15.80;96661.00;;;;8294800;28;20248;-73
2022/10/25 09:48:57;;;;;;;3.63;3.03;;;;;16.10;96655.00;;;;8294399;28;20234;-72
2022/10/25 09:53:32;;;;;;;6.70;2.47;;;;;16.10;96657.00;;;;8293097;28;20568;-74
2022/10/25 09:58:06;;;;;;;305.95;130.35;;;;;16.10;96663.00;;;;8295443;28;20217;-74
2022/10/25 10:02:43;;;;;;;612.10;256.58;;;;;16.30;96665.00;;;;8293963;28;20241;-74
2022/10/25 10:07:21;;;;;;;230.40;113.45;;;;;16.20;96661.00;;;;8293898;28;20217;-74
2022/10/25 10:11:57;;;;;;;458.30;299.85;;;;;16.20;96662.00;;;;8293597;28;20301;-74
2022/10/25 10:16:34;;;;;;;25.10;19.35;;;;;16.40;96652.00;;;;8294329;28;20271;-74
2022/10/25 10:21:12;;;;;;;9.45;5.30;;;;;16.60;96666.00;;;;8293805;28;20675;-75
2022/10/25 10:25:43;;;;;;;40.92;36.45;;;;;17.00;96659.00;;;;8294593;28;20222;-82
2022/10/25 10:30:27;;;;;;;13.25;7.47;;;;;17.40;96651.00;;;;8293561;28;20233;-83
2022/10/25 10:34:32;;;;;;;14.00;8.48;;;;;17.70;96656.00;;;;8294121;28;20600;-82
2022/10/25 10:39:23;;;;;;;7.38;3.58;;;;;17.80;96644.00;;;;8294313;28;20218;-81
2022/10/25 10:43:41;;;;;;;3.17;1.90;;;;;17.80;96644.00;;;;8193642;28;20654;-82
2022/10/25 10:48:22;;;;;;;3.42;1.73;;;;;17.70;96640.00;;;;8189644;28;20254;-85
2022/10/25 10:58:00;;;;;;;4.22;2.55;;;;;17.70;96639.00;;;;8293936;28;20228;-89
2022/10/25 11:02:37;;;;;;;49.70;27.48;;;;;17.80;96639.00;;;;8293075;28;20246;-88
2022/10/25 11:07:25;;;;;;;34.50;17.98;;;;;17.80;96637.00;;;;8295278;28;20218;-86
2022/10/25 11:12:05;;;;;;;25.38;13.63;;;;;17.90;96634.00;;;;8300452;28;20225;-87
2022/10/25 11:16:38;;;;;;;6.90;2.03;;;;;17.90;96635.00;;;;8299293;28;20244;-87
2022/10/25 11:20:49;;;;;;;7.75;2.00;;;;;17.90;96637.00;;;;8299233;28;20236;-86
2022/10/25 11:25:26;;;;;;;3.42;1.70;;;;;17.90;96634.00;;;;8300599;28;20224;-85
2022/10/25 11:30:03;;;;;;;4.13;1.40;;;;;18.10;96631.00;;;;8299470;28;20656;-86
2022/10/25 11:34:37;;;;;;;6.63;1.45;;;;;18.10;96632.00;;;;8298476;28;26228;-84
2022/10/25 11:39:19;;;;;;;3.63;1.92;;;;;18.10;96632.00;;;;8299304;28;20217;-84
2022/10/25 11:44:11;;;;;;;3.53;1.63;;;;;18.00;96629.00;;;;8298822;28;20655;-84
2022/10/25 11:49:01;;;;;;;4.32;1.45;;;;;18.10;96615.00;;;;8298149;28;20224;-84
2022/10/25 11:53:32;;;;;;;6.32;1.88;;;;;18.00;96618.00;;;;8298908;28;20218;-83
2022/10/25 11:57:45;;;;;;;4.30;1.40;;;;;18.00;96616.00;;;;8298484;28;20228;-84
2022/10/25 12:02:28;;;;;;;1.67;1.35;;;;;18.10;96614.00;;;;8298268;28;20226;-83
2022/10/25 12:06:40;;;;;;;4.50;1.17;;;;;18.20;96613.00;;;;8272659;28;20225;-83
2022/10/25 12:11:10;;;;;;;3.60;1.35;;;;;18.40;96610.00;;;;8299319;28;20222;-82
2022/10/25 12:15:47;;;;;;;2.45;1.35;;;;;18.30;96612.00;;;;8297991;28;20237;-82
2022/10/25 12:20:24;;;;;;;3.50;1.30;;;;;18.20;96621.00;;;;8296728;28;20221;-81
2022/10/25 12:25:04;;;;;;;5.43;1.30;;;;;18.00;96616.00;;;;8297895;28;20237;-82
2022/10/25 12:29:39;;;;;;;2.28;1.05;;;;;17.90;96613.00;;;;8298548;28;20568;-83
2022/10/25 12:34:21;;;;;;;4.63;1.85;;;;;18.00;96606.00;;;;8296736;28;20556;-82
2022/10/25 12:38:55;;;;;;;6.30;1.63;;;;;18.30;96608.00;;;;8296888;28;20257;-81
2022/10/25 12:48:59;;;;;;;1.63;0.93;;;;;18.80;96596.00;;;;8296236;28;20229;-81
2022/10/25 12:53:38;;;;;;;2.65;1.02;;;;;18.80;96602.00;;;;8261701;28;20228;-81
2022/10/25 12:57:59;;;;;;;3.03;1.20;;;;;18.70;96599.00;;;;8296645;28;20260;-81
2022/10/25 13:02:39;;;;;;;4.85;1.05;;;;;18.90;96589.00;;;;8297102;28;20237;-81
2022/10/25 13:07:02;;;;;;;2.25;1.00;;;;;19.00;96591.00;;;;8296350;28;20221;-81
2022/10/25 13:11:09;;;;;;;3.50;1.17;;;;;19.10;96588.00;;;;8296887;28;20233;-81
2022/10/25 13:15:44;;;;;;;1.80;1.33;;;;;19.20;96595.00;;;;8297109;28;20568;-81
2022/10/25 13:19:48;;;;;;;2.38;0.93;;;;;19.40;96588.00;;;;8296332;28;20560;-81
2022/10/25 13:24:36;;;;;;;3.08;1.15;;;;;19.60;96594.00;;;;8296133;28;20228;-80
2022/10/25 13:29:00;;;;;;;5.40;1.40;;;;;19.90;96592.00;;;;8295054;28;20308;-80
2022/10/25 13:33:34;;;;;;;1.80;1.05;;;;;20.20;96587.00;;;;8296524;28;20230;-80
2022/10/25 13:38:14;;;;;;;1.77;1.00;;;;;20.30;96593.00;;;;8295489;28;20226;-80
2022/10/25 13:42:32;;;;;;;3.40;1.35;;;;;20.20;96598.00;;;;8295524;28;20222;-80
2022/10/25 13:46:39;;;;;;;3.80;1.00;;;;;20.00;96599.00;;;;8295892;28;20252;-79
2022/10/25 13:50:44;;;;;;;3.72;1.27;;;;;19.80;96597.00;;;;8294172;28;20687;-79
2022/10/25 13:55:20;;;;;;;5.47;1.10;;;;;19.60;96596.00;;;;8292253;28;20217;-77
2022/10/25 14:00:00;;;;;;;2.80;1.10;;;;;19.50;96593.00;;;;8295451;28;20222;-77
2022/10/25 14:04:39;;;;;;;3.10;1.00;;;;;19.40;96590.00;;;;8295419;28;20221;-80
2022/10/25 14:09:19;;;;;;;2.25;1.45;;;;;19.40;96584.00;;;;8294597;28;20222;-79
2022/10/25 14:13:49;;;;;;;1.38;1.25;;;;;19.30;96595.00;;;;8295094;28;20225;-78
2022/10/25 14:18:26;;;;;;;2.25;1.48;;;;;19.30;96598.00;;;;8294547;28;20237;-79
2022/10/25 14:23:06;;;;;;;2.40;1.00;;;;;19.30;96592.00;;;;8295526;28;20230;-78
2022/10/25 14:27:40;;;;;;;2.10;1.20;;;;;19.20;96584.00;;;;8291216;28;20240;-78
2022/10/25 14:32:19;;;;;;;2.20;1.10;;;;;19.10;96581.00;;;;8294549;28;20233;-79
2022/10/25 14:36:54;;;;;;;2.72;1.10;;;;;19.10;96586.00;;;;8294718;28;20644;-81
2022/10/25 14:41:01;;;;;;;10.85;1.50;;;;;18.90;96583.00;;;;8295512;28;20241;-81
2022/10/25 14:45:34;;;;;;;3.25;1.20;;;;;18.70;96587.00;;;;8300249;28;20304;-86
2022/10/25 14:50:13;;;;;;;3.25;1.15;;;;;18.60;96581.00;;;;8299748;28;20681;-81
2022/10/25 14:54:32;;;;;;;2.83;1.27;;;;;18.50;96579.00;;;;8298337;28;20226;-81
2022/10/25 14:59:06;;;;;;;2.22;1.20;;;;;18.40;96576.00;;;;8299794;28;20225;-81
2022/10/25 15:03:41;;;;;;;1.70;1.10;;;;;18.30;96581.00;;;;8300489;28;20260;-81
2022/10/25 15:08:17;;;;;;;3.13;1.52;;;;;18.10;96577.00;;;;8300519;28;20233;-81
2022/10/25 15:12:23;;;;;;;2.80;1.83;;;;;18.00;96578.00;;;;8299726;28;20245;-81
2022/10/25 15:16:35;;;;;;;4.47;1.40;;;;;17.80;96589.00;;;;8299462;28;20218;-80
2022/10/25 15:20:38;;;;;;;3.80;2.00;;;;;17.60;96584.00;;;;8300533;28;20229;-81
2022/10/25 15:24:47;;;;;;;6.40;1.60;;;;;17.50;96576.00;;;;8299856;28;20583;-80
2022/10/25 15:28:53;;;;;;;1.40;1.30;;;;;17.30;96583.00;;;;8300735;28;20242;-81
2022/10/25 15:33:30;;;;;;;9.10;1.55;;;;;17.00;96576.00;;;;8300397;28;20520;-81
2022/10/25 15:37:33;;;;;;;6.20;1.77;;;;;16.80;96581.00;;;;8297377;28;20644;-82
2022/10/25 15:41:36;;;;;;;2.50;1.33;;;;;16.50;96572.00;;;;8299896;28;20233;-81
2022/10/25 15:46:19;;;;;;;2.90;1.40;;;;;16.10;96576.00;;;;8298607;28;20229;-82
2022/10/25 15:50:24;;;;;;;3.05;1.70;;;;;15.80;96574.00;;;;8298754;28;20226;-81
2022/10/25 15:54:58;;;;;;;4.53;2.10;;;;;15.40;96579.00;;;;8297662;28;20221;-80
2022/10/25 15:59:01;;;;;;;6.13;3.25;;;;;15.00;96581.00;;;;8298918;28;20563;-81
2022/10/25 16:03:06;;;;;;;8.32;2.75;;;;;14.60;96579.00;;;;8298681;28;20283;-81
2022/10/25 16:07:41;;;;;;;8.18;3.70;;;;;14.30;96579.00;;;;8298689;28;20664;-81
2022/10/25 16:11:48;;;;;;;12.05;4.57;;;;;14.00;96582.00;;;;8298005;28;20221;-81
2022/10/25 16:15:52;;;;;;;12.77;4.35;;;;;13.80;96593.00;;;;8298815;28;20221;-81
2022/10/25 16:19:55;;;;;;;8.98;5.18;;;;;13.70;96595.00;;;;8298588;28;20225;-81
2022/10/25 16:23:59;;;;;;;10.23;4.72;;;;;13.70;96593.00;;;;8298421;28;20669;-81
2022/10/25 16:28:02;;;;;;;9.85;5.70;;;;;13.40;96590.00;;;;8298784;28;20221;-81
2022/10/25 16:32:40;;;;;;;10.10;4.65;;;;;13.20;96592.00;;;;8297452;28;20226;-82
2022/10/25 16:36:43;;;;;;;8.80;4.20;;;;;12.90;96598.00;;;;8297713;28;20293;-81
2022/10/25 16:40:48;;;;;;;16.38;8.95;;;;;12.80;96590.00;;;;8295224;28;20241;-81
2022/10/25 16:45:22;;;;;;;15.95;5.95;;;;;12.60;96588.00;;;;8296052;28;20287;-81
2022/10/25 16:49:25;;;;;;;9.25;4.22;;;;;12.40;96588.00;;;;8296285;28;20226;-81
2022/10/25 16:53:30;;;;;;;8.32;3.95;;;;;12.20;96589.00;;;;8296762;28;20222;-81
2022/10/25 16:58:10;;;;;;;15.70;5.57;;;;;12.10;96595.00;;;;8293782;28;20229;-84
2022/10/25 17:02:41;;;;;;;9.10;3.90;;;;;12.00;96599.00;;;;8296282;28;20552;-83
2022/10/25 17:06:44;;;;;;;16.98;4.93;;;;;11.90;96608.00;;;;8296201;28;20229;-84
2022/10/25 17:10:47;;;;;;;8.77;4.45;;;;;11.80;96606.00;;;;8296741;28;20229;-84
2022/10/25 17:14:52;;;;;;;15.35;4.65;;;;;11.70;96606.00;;;;8295435;28;20244;-84
2022/10/25 17:19:26;;;;;;;13.10;5.03;;;;;11.60;96600.00;;;;8296829;28;20612;-84
2022/10/25 17:24:03;;;;;;;9.30;4.35;;;;;11.50;96596.00;;;;8296385;28;20234;-84
2022/10/25 17:28:07;;;;;;;29.05;11.40;;;;;11.40;96596.00;;;;8296662;28;20221;-85
2022/10/25 17:32:46;;;;;;;17.17;7.45;;;;;11.20;96605.00;;;;8295971;28;20228;-84
2022/10/25 17:36:51;;;;;;;16.20;6.38;;;;;11.20;96593.00;;;;8296635;28;20230;-85
2022/10/25 17:40:59;;;;;;;12.55;6.18;;;;;11.10;96592.00;;;;8295900;28;20212;-84
2022/10/25 17:45:02;;;;;;;25.10;7.78;;;;;10.90;96599.00;;;;8295800;28;20603;-84
2022/10/25 17:49:37;;;;;;;20.42;7.40;;;;;10.90;96594.00;;;;8296124;28;20662;-84
2022/10/25 17:53:41;;;;;;;18.13;7.35;;;;;11.00;96597.00;;;;8295467;28;20214;-84
2022/10/25 17:58:17;;;;;;;13.27;6.10;;;;;11.00;96596.00;;;;8295546;28;20229;-84
2022/10/25 18:02:22;;;;;;;14.98;7.05;;;;;10.90;96589.00;;;;8295310;28;20679;-82
2022/10/25 18:06:33;;;;;;;15.85;5.65;;;;;10.90;96592.00;;;;8296025;28;20569;-84
2022/10/25 18:10:36;;;;;;;13.25;6.15;;;;;10.90;96598.00;;;;8293118;28;20281;-84
2022/10/25 18:14:39;;;;;;;10.60;5.47;;;;;10.80;96600.00;;;;8295257;28;20236;-81
2022/10/25 18:19:17;;;;;;;12.23;5.15;;;;;10.70;96594.00;;;;8302491;28;20225;-79
2022/10/25 18:23:55;;;;;;;10.30;4.60;;;;;10.40;96593.00;;;;8301129;28;20284;-80
2022/10/25 18:28:29;;;;;;;11.18;4.60;;;;;10.40;96581.00;;;;8301587;28;20216;-80
2022/10/25 18:32:32;;;;;;;12.23;6.25;;;;;10.30;96586.00;;;;8300907;28;20644;-81
2022/10/25 18:36:38;;;;;;;18.48;7.05;;;;;10.30;96594.00;;;;8301611;28;20698;-78
2022/10/25 18:41:12;;;;;;;14.48;6.10;;;;;10.40;96602.00;;;;8300894;28;20533;-79
2022/10/25 18:45:16;;;;;;;16.95;6.28;;;;;10.40;96597.00;;;;8300721;28;20228;-79
2022/10/25 18:49:19;;;;;;;18.05;5.47;;;;;10.30;96598.00;;;;8301594;28;20237;-80
2022/10/25 18:53:57;;;;;;;13.40;5.35;;;;;10.10;96596.00;;;;8299820;28;20232;-80
2022/10/25 18:58:33;;;;;;;10.50;5.10;;;;;10.00;96577.00;;;;8300342;28;20217;-82
2022/10/25 19:03:13;;;;;;;7.43;4.57;;;;;10.00;96577.00;;;;8300226;28;20223;-77
2022/10/25 19:07:16;;;;;;;8.60;4.80;;;;;9.90;96577.00;;;;8300986;28;20226;-80
2022/10/25 19:11:19;;;;;;;10.32;5.25;;;;;9.80;96585.00;;;;8289265;28;20221;-79
2022/10/25 19:15:56;;;;;;;13.65;5.20;;;;;9.80;96585.00;;;;8302742;28;20249;-78
2022/10/25 19:20:32;;;;;;;12.18;5.78;;;;;9.90;96580.00;;;;8300024;28;20702;-77
2022/10/25 19:25:06;;;;;;;13.30;6.30;;;;;9.90;96575.00;;;;8296237;28;21223;-83
2022/10/25 19:29:42;;;;;;;18.48;8.52;;;;;9.90;96580.00;;;;8298079;28;20337;-83
2022/10/25 19:34:19;;;;;;;15.63;6.72;;;;;9.80;96573.00;;;;8298946;28;20229;-87
2022/10/25 19:38:57;;;;;;;11.88;6.25;;;;;9.60;96576.00;;;;8298650;28;20661;-83
2022/10/25 19:43:06;;;;;;;16.65;7.15;;;;;9.50;96578.00;;;;8298435;28;20220;-83
2022/10/25 19:47:44;;;;;;;12.25;5.88;;;;;9.40;96565.00;;;;8298405;28;20257;-82
2022/10/25 19:52:21;;;;;;;18.95;7.45;;;;;9.30;96572.00;;;;8298209;28;20238;-78
2022/10/25 19:57:00;;;;;;;12.15;7.47;;;;;9.40;96562.00;;;;8297812;28;20297;-78
2022/10/25 20:01:34;;;;;;;15.20;8.80;;;;;9.40;96562.00;;;;8298335;28;20579;-79
2022/10/25 20:06:08;;;;;;;20.50;9.57;;;;;9.40;96561.00;;;;8297298;28;20226;-76
2022/10/25 20:10:45;;;;;;;13.10;6.53;;;;;9.30;96563.00;;;;8297062;28;20218;-79
2022/10/25 20:15:23;;;;;;;17.42;6.70;;;;;9.20;96566.00;;;;8297532;28;20628;-77
2022/10/25 20:19:26;;;;;;;13.02;7.85;;;;;9.20;96562.00;;;;8297965;28;20230;-77
2022/10/25 20:24:04;;;;;;;21.35;9.43;;;;;9.20;96545.00;;;;8297413;28;20222;-76
2022/10/25 20:28:38;;;;;;;15.80;6.82;;;;;9.10;96552.00;;;;8297766;28;20217;-76
2022/10/25 20:33:18;;;;;;;40.42;18.83;;;;;9.00;96555.00;;;;8297753;28;20229;-75
2022/10/25 20:37:52;;;;;;;16.73;7.40;;;;;9.10;96551.00;;;;8296859;28;20232;-75
2022/10/25 20:42:30;;;;;;;19.02;7.40;;;;;9.10;96546.00;;;;8296434;28;20289;-75
2022/10/25 20:52:06;;;;;;;11.82;5.22;;;;;9.10;96555.00;;;;8296550;28;20225;-72
2022/10/25 20:56:39;;;;;;;19.27;7.03;;;;;9.00;96558.00;;;;8295935;28;20222;-72
2022/10/25 21:00:43;;;;;;;12.77;5.70;;;;;9.00;96563.00;;;;8296502;28;20249;-73
2022/10/25 21:05:19;;;;;;;18.52;9.77;;;;;9.00;96560.00;;;;8289290;28;20230;-73
2022/10/25 21:09:24;;;;;;;15.50;6.68;;;;;9.00;96569.00;;;;8295920;28;20218;-73
2022/10/25 21:13:57;;;;;;;15.88;7.78;;;;;9.00;96565.00;;;;8291619;28;20230;-73
2022/10/25 21:18:00;;;;;;;17.10;7.43;;;;;8.90;96567.00;;;;8295626;28;20225;-73
2022/10/25 21:22:39;;;;;;;30.42;8.90;;;;;8.90;96561.00;;;;8295663;28;20233;-73
2022/10/25 21:26:45;;;;;;;52.13;13.23;;;;;8.80;96560.00;;;;8328111;28;20674;-73
2022/10/25 21:31:18;;;;;;;352.23;18.15;;;;;8.70;96560.00;;;;8327821;28;20220;-73
2022/10/25 21:35:21;;;;;;;68.72;11.00;;;;;8.60;96563.00;;;;8296217;28;20295;-73
2022/10/25 21:39:24;;;;;;;69.67;15.23;;;;;8.60;96561.00;;;;8295102;28;20695;-72
2022/10/25 21:44:04;;;;;;;75.85;13.18;;;;;8.60;96541.00;;;;8294978;28;20225;-72
2022/10/25 21:48:08;;;;;;;22.23;8.10;;;;;8.50;96550.00;;;;8295601;28;20209;-72
2022/10/25 21:52:11;;;;;;;19.50;8.70;;;;;8.60;96545.00;;;;8295266;28;20221;-72
2022/10/25 21:56:15;;;;;;;19.27;9.87;;;;;8.60;96530.00;;;;8295292;28;20221;-72
2022/10/25 22:00:51;;;;;;;19.85;8.93;;;;;8.60;96529.00;;;;8294816;28;20272;-72
2022/10/25 22:04:54;;;;;;;26.95;9.10;;;;;8.70;96520.00;;;;8295801;28;20430;-71
2022/10/25 22:08:57;;;;;;;46.35;13.77;;;;;8.80;96520.00;;;;8295212;28;20268;-71
2022/10/25 22:13:31;;;;;;;27.45;10.93;;;;;9.00;96518.00;;;;8295300;28;20226;-71
2022/10/25 22:17:35;;;;;;;19.77;10.30;;;;;9.10;96516.00;;;;8295021;28;20221;-71
2022/10/25 22:21:40;;;;;;;23.00;10.68;;;;;9.10;96514.00;;;;8295304;28;20225;-71
2022/10/25 22:25:43;;;;;;;23.38;9.80;;;;;9.00;96516.00;;;;8293286;28;20236;-72